sensor_id;sensor_type;location;lat;lon;timestamp;temperature;humidity
20610;DHT22;10463;52.378;9.688;2024-02-04T00:01:14;22.00;27.10
20610;DHT22;10463;52.378;9.688;2024-02-04T00:04:00;22.00;27.10
20610;DHT22;10463;52.378;9.688;2024-02-04T00:06:44;22.00;27.10
20610;DHT22;10463;52.378;9.688;2024-02-04T00:09:29;22.00;27.10
20610;DHT22;10463;52.378;9.688;2024-02-04T00:12:13;22.00;27.10
20610;DHT22;10463;52.378;9.688;2024-02-04T00:14:58;22.00;27.10
20610;DHT22;10463;52.378;9.688;2024-02-04T00:17:43;22.00;27.00
20610;DHT22;10463;52.378;9.688;2024-02-04T00:20:28;22.00;27.00
20610;DHT22;10463;52.378;9.688;2024-02-04T00:23:14;22.00;27.00
20610;DHT22;10463;52.378;9.688;2024-02-04T00:25:58;22.00;27.00
20610;DHT22;10463;52.378;9.688;2024-02-04T00:28:43;22.00;27.00
20610;DHT22;10463;52.378;9.688;2024-02-04T00:31:28;22.00;27.00
20610;DHT22;10463;52.378;9.688;2024-02-04T00:34:13;22.00;27.00
20610;DHT22;10463;52.378;9.688;2024-02-04T00:36:59;22.00;27.00
20610;DHT22;10463;52.378;9.688;2024-02-04T00:39:44;22.00;27.00
20610;DHT22;10463;52.378;9.688;2024-02-04T00:42:29;22.00;27.00
20610;DHT22;10463;52.378;9.688;2024-02-04T00:45:14;22.00;27.00
20610;DHT22;10463;52.378;9.688;2024-02-04T00:47:58;22.00;27.00
20610;DHT22;10463;52.378;9.688;2024-02-04T00:50:43;22.00;27.00
20610;DHT22;10463;52.378;9.688;2024-02-04T00:53:29;22.00;27.00
20610;DHT22;10463;52.378;9.688;2024-02-04T00:56:17;22.00;27.00
20610;DHT22;10463;52.378;9.688;2024-02-04T00:59:02;22.00;27.00
20610;DHT22;10463;52.378;9.688;2024-02-04T01:01:47;22.00;27.00
20610;DHT22;10463;52.378;9.688;2024-02-04T01:04:31;22.00;27.00
20610;DHT22;10463;52.378;9.688;2024-02-04T01:07:15;22.00;27.00
20610;DHT22;10463;52.378;9.688;2024-02-04T01:10:01;22.00;26.90
20610;DHT22;10463;52.378;9.688;2024-02-04T01:12:46;22.00;26.90
20610;DHT22;10463;52.378;9.688;2024-02-04T01:15:30;22.00;26.90
20610;DHT22;10463;52.378;9.688;2024-02-04T01:18:15;22.00;26.90
20610;DHT22;10463;52.378;9.688;2024-02-04T01:21:00;22.00;26.90
20610;DHT22;10463;52.378;9.688;2024-02-04T01:23:45;22.00;26.90
20610;DHT22;10463;52.378;9.688;2024-02-04T01:26:31;22.00;26.90
20610;DHT22;10463;52.378;9.688;2024-02-04T01:29:16;22.00;26.90
20610;DHT22;10463;52.378;9.688;2024-02-04T01:32:01;22.00;26.90
20610;DHT22;10463;52.378;9.688;2024-02-04T01:34:45;22.00;26.90
20610;DHT22;10463;52.378;9.688;2024-02-04T01:37:30;22.00;26.90
20610;DHT22;10463;52.378;9.688;2024-02-04T01:40:14;22.00;26.90
20610;DHT22;10463;52.378;9.688;2024-02-04T01:43:01;22.00;26.90
20610;DHT22;10463;52.378;9.688;2024-02-04T01:45:45;22.00;26.90
20610;DHT22;10463;52.378;9.688;2024-02-04T01:48:31;22.00;26.90
20610;DHT22;10463;52.378;9.688;2024-02-04T01:51:16;22.00;26.90
20610;DHT22;10463;52.378;9.688;2024-02-04T01:54:01;22.00;27.40
20610;DHT22;10463;52.378;9.688;2024-02-04T01:56:47;22.00;26.90
20610;DHT22;10463;52.378;9.688;2024-02-04T01:59:34;22.00;26.80
20610;DHT22;10463;52.378;9.688;2024-02-04T02:02:20;22.00;26.80
20610;DHT22;10463;52.378;9.688;2024-02-04T02:05:06;22.00;26.80
20610;DHT22;10463;52.378;9.688;2024-02-04T02:07:51;22.00;26.80
20610;DHT22;10463;52.378;9.688;2024-02-04T02:10:35;22.00;26.80
20610;DHT22;10463;52.378;9.688;2024-02-04T02:13:24;22.00;26.80
20610;DHT22;10463;52.378;9.688;2024-02-04T02:16:16;22.00;26.80
20610;DHT22;10463;52.378;9.688;2024-02-04T02:19:18;22.00;26.80
20610;DHT22;10463;52.378;9.688;2024-02-04T02:22:14;22.00;26.80
20610;DHT22;10463;52.378;9.688;2024-02-04T02:25:05;22.00;26.80
20610;DHT22;10463;52.378;9.688;2024-02-04T02:27:52;22.00;26.80
20610;DHT22;10463;52.378;9.688;2024-02-04T02:30:36;22.00;26.80
20610;DHT22;10463;52.378;9.688;2024-02-04T02:33:21;22.00;26.80
20610;DHT22;10463;52.378;9.688;2024-02-04T02:36:12;22.00;26.80
20610;DHT22;10463;52.378;9.688;2024-02-04T02:39:02;22.00;26.80
20610;DHT22;10463;52.378;9.688;2024-02-04T02:41:54;22.00;27.20
20610;DHT22;10463;52.378;9.688;2024-02-04T02:44:41;22.00;26.80
20610;DHT22;10463;52.378;9.688;2024-02-04T02:47:26;22.00;26.80
20610;DHT22;10463;52.378;9.688;2024-02-04T02:50:13;22.00;26.80
20610;DHT22;10463;52.378;9.688;2024-02-04T02:52:59;22.00;26.80
20610;DHT22;10463;52.378;9.688;2024-02-04T02:55:43;22.00;26.80
20610;DHT22;10463;52.378;9.688;2024-02-04T02:58:32;22.00;26.80
20610;DHT22;10463;52.378;9.688;2024-02-04T03:01:17;22.00;26.80
20610;DHT22;10463;52.378;9.688;2024-02-04T03:04:01;22.00;26.80
20610;DHT22;10463;52.378;9.688;2024-02-04T03:06:46;22.00;26.80
20610;DHT22;10463;52.378;9.688;2024-02-04T03:09:30;22.00;26.80
20610;DHT22;10463;52.378;9.688;2024-02-04T03:12:15;22.00;26.80
20610;DHT22;10463;52.378;9.688;2024-02-04T03:15:01;22.00;26.70
20610;DHT22;10463;52.378;9.688;2024-02-04T03:17:45;22.00;26.80
20610;DHT22;10463;52.378;9.688;2024-02-04T03:20:30;22.00;26.70
20610;DHT22;10463;52.378;9.688;2024-02-04T03:23:15;22.00;26.70
20610;DHT22;10463;52.378;9.688;2024-02-04T03:26:00;22.00;26.70
20610;DHT22;10463;52.378;9.688;2024-02-04T03:28:44;22.00;26.70
20610;DHT22;10463;52.378;9.688;2024-02-04T03:31:31;22.00;26.70
20610;DHT22;10463;52.378;9.688;2024-02-04T03:34:15;22.00;26.70
20610;DHT22;10463;52.378;9.688;2024-02-04T03:37:00;22.00;26.70
20610;DHT22;10463;52.378;9.688;2024-02-04T03:39:44;22.00;26.70
20610;DHT22;10463;52.378;9.688;2024-02-04T03:42:30;22.00;26.70
20610;DHT22;10463;52.378;9.688;2024-02-04T03:45:15;22.00;27.20
20610;DHT22;10463;52.378;9.688;2024-02-04T03:48:01;22.00;26.70
20610;DHT22;10463;52.378;9.688;2024-02-04T03:50:45;22.00;26.70
20610;DHT22;10463;52.378;9.688;2024-02-04T03:53:30;22.00;26.70
20610;DHT22;10463;52.378;9.688;2024-02-04T03:56:14;22.00;26.70
20610;DHT22;10463;52.378;9.688;2024-02-04T03:58:58;22.00;26.70
20610;DHT22;10463;52.378;9.688;2024-02-04T04:01:47;22.00;26.70
20610;DHT22;10463;52.378;9.688;2024-02-04T04:04:34;22.00;26.70
20610;DHT22;10463;52.378;9.688;2024-02-04T04:07:18;22.00;26.70
20610;DHT22;10463;52.378;9.688;2024-02-04T04:10:03;22.00;26.70
20610;DHT22;10463;52.378;9.688;2024-02-04T04:12:48;22.00;26.70
20610;DHT22;10463;52.378;9.688;2024-02-04T04:15:33;22.00;26.70
20610;DHT22;10463;52.378;9.688;2024-02-04T04:18:17;22.00;26.70
20610;DHT22;10463;52.378;9.688;2024-02-04T04:21:04;22.00;26.70
20610;DHT22;10463;52.378;9.688;2024-02-04T04:23:48;22.00;26.70
20610;DHT22;10463;52.378;9.688;2024-02-04T04:26:33;22.00;26.70
20610;DHT22;10463;52.378;9.688;2024-02-04T04:29:18;22.00;26.60
20610;DHT22;10463;52.378;9.688;2024-02-04T04:32:04;22.00;26.70
20610;DHT22;10463;52.378;9.688;2024-02-04T04:34:49;22.00;26.70
20610;DHT22;10463;52.378;9.688;2024-02-04T04:37:35;22.00;26.60
20610;DHT22;10463;52.378;9.688;2024-02-04T04:40:19;22.00;26.60
20610;DHT22;10463;52.378;9.688;2024-02-04T04:43:04;22.00;26.60
20610;DHT22;10463;52.378;9.688;2024-02-04T04:45:48;22.00;27.10
20610;DHT22;10463;52.378;9.688;2024-02-04T04:48:33;22.00;26.60
20610;DHT22;10463;52.378;9.688;2024-02-04T04:51:17;22.00;26.60
20610;DHT22;10463;52.378;9.688;2024-02-04T04:54:03;22.00;26.70
20610;DHT22;10463;52.378;9.688;2024-02-04T04:56:48;22.00;26.60
20610;DHT22;10463;52.378;9.688;2024-02-04T04:59:33;22.00;26.60
20610;DHT22;10463;52.378;9.688;2024-02-04T05:02:17;22.00;26.60
20610;DHT22;10463;52.378;9.688;2024-02-04T05:05:02;22.00;26.60
20610;DHT22;10463;52.378;9.688;2024-02-04T05:07:46;22.00;26.60
20610;DHT22;10463;52.378;9.688;2024-02-04T05:10:32;22.00;26.60
20610;DHT22;10463;52.378;9.688;2024-02-04T05:13:17;22.00;26.60
20610;DHT22;10463;52.378;9.688;2024-02-04T05:16:02;22.00;26.60
20610;DHT22;10463;52.378;9.688;2024-02-04T05:18:46;22.00;26.60
20610;DHT22;10463;52.378;9.688;2024-02-04T05:21:31;22.00;26.60
20610;DHT22;10463;52.378;9.688;2024-02-04T05:24:15;22.00;26.60
20610;DHT22;10463;52.378;9.688;2024-02-04T05:27:01;22.00;26.60
20610;DHT22;10463;52.378;9.688;2024-02-04T05:29:46;22.00;26.60
20610;DHT22;10463;52.378;9.688;2024-02-04T05:32:30;22.00;26.60
20610;DHT22;10463;52.378;9.688;2024-02-04T05:35:15;22.00;26.60
20610;DHT22;10463;52.378;9.688;2024-02-04T05:37:59;22.00;26.60
20610;DHT22;10463;52.378;9.688;2024-02-04T05:40:44;22.00;26.60
20610;DHT22;10463;52.378;9.688;2024-02-04T05:43:30;22.00;26.60
20610;DHT22;10463;52.378;9.688;2024-02-04T05:46:15;22.00;26.60
20610;DHT22;10463;52.378;9.688;2024-02-04T05:48:59;22.00;27.10
20610;DHT22;10463;52.378;9.688;2024-02-04T05:51:44;22.00;26.60
20610;DHT22;10463;52.378;9.688;2024-02-04T05:54:28;22.00;26.60
20610;DHT22;10463;52.378;9.688;2024-02-04T05:57:13;22.00;26.60
20610;DHT22;10463;52.378;9.688;2024-02-04T05:59:59;22.00;26.60
20610;DHT22;10463;52.378;9.688;2024-02-04T06:02:44;22.00;26.60
20610;DHT22;10463;52.378;9.688;2024-02-04T06:05:28;22.00;26.60
20610;DHT22;10463;52.378;9.688;2024-02-04T06:08:13;22.00;26.60
20610;DHT22;10463;52.378;9.688;2024-02-04T06:10:58;22.00;26.60
20610;DHT22;10463;52.378;9.688;2024-02-04T06:13:44;22.00;26.50
20610;DHT22;10463;52.378;9.688;2024-02-04T06:16:30;22.00;26.50
20610;DHT22;10463;52.378;9.688;2024-02-04T06:19:15;22.00;26.50
20610;DHT22;10463;52.378;9.688;2024-02-04T06:21:59;22.00;26.50
20610;DHT22;10463;52.378;9.688;2024-02-04T06:24:44;22.00;26.50
20610;DHT22;10463;52.378;9.688;2024-02-04T06:27:29;22.00;26.50
20610;DHT22;10463;52.378;9.688;2024-02-04T06:30:14;22.00;26.50
20610;DHT22;10463;52.378;9.688;2024-02-04T06:33:00;22.00;26.50
20610;DHT22;10463;52.378;9.688;2024-02-04T06:35:45;22.00;26.50
20610;DHT22;10463;52.378;9.688;2024-02-04T06:38:30;22.00;26.50
20610;DHT22;10463;52.378;9.688;2024-02-04T06:41:15;22.00;26.50
20610;DHT22;10463;52.378;9.688;2024-02-04T06:43:59;22.00;26.50
20610;DHT22;10463;52.378;9.688;2024-02-04T06:46:44;22.00;26.50
20610;DHT22;10463;52.378;9.688;2024-02-04T06:49:30;22.00;27.00
20610;DHT22;10463;52.378;9.688;2024-02-04T06:52:15;22.00;26.50
20610;DHT22;10463;52.378;9.688;2024-02-04T06:54:59;22.00;26.50
20610;DHT22;10463;52.378;9.688;2024-02-04T06:57:44;22.00;26.40
20610;DHT22;10463;52.378;9.688;2024-02-04T07:00:29;22.00;26.50
20610;DHT22;10463;52.378;9.688;2024-02-04T07:03:14;22.00;26.40
20610;DHT22;10463;52.378;9.688;2024-02-04T07:06:00;22.00;26.50
20610;DHT22;10463;52.378;9.688;2024-02-04T07:08:45;22.00;26.50
20610;DHT22;10463;52.378;9.688;2024-02-04T07:11:29;22.00;26.40
20610;DHT22;10463;52.378;9.688;2024-02-04T07:14:14;22.00;26.40
20610;DHT22;10463;52.378;9.688;2024-02-04T07:16:58;22.00;26.40
20610;DHT22;10463;52.378;9.688;2024-02-04T07:19:43;22.00;26.40
20610;DHT22;10463;52.378;9.688;2024-02-04T07:22:29;22.00;26.40
20610;DHT22;10463;52.378;9.688;2024-02-04T07:25:13;22.00;26.40
20610;DHT22;10463;52.378;9.688;2024-02-04T07:27:58;22.00;26.40
20610;DHT22;10463;52.378;9.688;2024-02-04T07:30:42;22.00;26.40
20610;DHT22;10463;52.378;9.688;2024-02-04T07:33:27;22.00;26.40
20610;DHT22;10463;52.378;9.688;2024-02-04T07:36:12;22.00;27.00
20610;DHT22;10463;52.378;9.688;2024-02-04T07:38:57;22.00;26.40
20610;DHT22;10463;52.378;9.688;2024-02-04T07:41:43;22.00;26.40
20610;DHT22;10463;52.378;9.688;2024-02-04T07:44:28;22.00;26.40
20610;DHT22;10463;52.378;9.688;2024-02-04T07:47:13;22.00;26.40
20610;DHT22;10463;52.378;9.688;2024-02-04T07:49:58;22.00;26.40
20610;DHT22;10463;52.378;9.688;2024-02-04T07:52:42;22.00;26.40
20610;DHT22;10463;52.378;9.688;2024-02-04T07:55:28;22.00;26.40
20610;DHT22;10463;52.378;9.688;2024-02-04T07:58:13;22.00;26.40
20610;DHT22;10463;52.378;9.688;2024-02-04T08:00:57;22.00;26.40
20610;DHT22;10463;52.378;9.688;2024-02-04T08:03:43;22.00;26.40
20610;DHT22;10463;52.378;9.688;2024-02-04T08:06:28;22.00;26.40
20610;DHT22;10463;52.378;9.688;2024-02-04T08:09:13;22.00;26.40
20610;DHT22;10463;52.378;9.688;2024-02-04T08:11:59;22.00;26.40
20610;DHT22;10463;52.378;9.688;2024-02-04T08:14:44;22.00;26.40
20610;DHT22;10463;52.378;9.688;2024-02-04T08:17:28;22.00;26.40
20610;DHT22;10463;52.378;9.688;2024-02-04T08:20:15;22.00;26.40
20610;DHT22;10463;52.378;9.688;2024-02-04T08:23:00;22.00;26.40
20610;DHT22;10463;52.378;9.688;2024-02-04T08:25:45;22.00;26.40
20610;DHT22;10463;52.378;9.688;2024-02-04T08:28:31;22.00;26.40
20610;DHT22;10463;52.378;9.688;2024-02-04T08:31:16;22.00;26.40
20610;DHT22;10463;52.378;9.688;2024-02-04T08:34:01;22.00;26.40
20610;DHT22;10463;52.378;9.688;2024-02-04T08:36:48;22.00;26.40
20610;DHT22;10463;52.378;9.688;2024-02-04T08:39:33;22.00;26.40
20610;DHT22;10463;52.378;9.688;2024-02-04T08:42:17;22.00;26.40
20610;DHT22;10463;52.378;9.688;2024-02-04T08:45:05;22.00;26.30
20610;DHT22;10463;52.378;9.688;2024-02-04T08:47:50;22.00;26.30
20610;DHT22;10463;52.378;9.688;2024-02-04T08:50:34;22.00;26.40
20610;DHT22;10463;52.378;9.688;2024-02-04T08:53:19;22.00;26.30
20610;DHT22;10463;52.378;9.688;2024-02-04T08:56:06;22.00;26.40
20610;DHT22;10463;52.378;9.688;2024-02-04T08:58:50;22.00;26.30
20610;DHT22;10463;52.378;9.688;2024-02-04T09:01:37;22.00;26.30
20610;DHT22;10463;52.378;9.688;2024-02-04T09:04:21;22.00;26.30
20610;DHT22;10463;52.378;9.688;2024-02-04T09:07:06;22.00;26.30
20610;DHT22;10463;52.378;9.688;2024-02-04T09:09:51;22.00;26.30
20610;DHT22;10463;52.378;9.688;2024-02-04T09:12:36;22.00;26.30
20610;DHT22;10463;52.378;9.688;2024-02-04T09:15:22;22.00;26.30
20610;DHT22;10463;52.378;9.688;2024-02-04T09:18:09;22.00;26.30
20610;DHT22;10463;52.378;9.688;2024-02-04T09:20:53;22.00;26.30
20610;DHT22;10463;52.378;9.688;2024-02-04T09:23:38;22.00;26.30
20610;DHT22;10463;52.378;9.688;2024-02-04T09:26:23;22.00;26.30
20610;DHT22;10463;52.378;9.688;2024-02-04T09:29:08;22.00;26.30
20610;DHT22;10463;52.378;9.688;2024-02-04T09:31:53;22.00;26.30
20610;DHT22;10463;52.378;9.688;2024-02-04T09:34:40;22.00;26.30
20610;DHT22;10463;52.378;9.688;2024-02-04T09:37:25;22.00;26.20
20610;DHT22;10463;52.378;9.688;2024-02-04T09:40:12;22.00;26.30
20610;DHT22;10463;52.378;9.688;2024-02-04T09:42:58;22.00;26.20
20610;DHT22;10463;52.378;9.688;2024-02-04T09:45:43;22.00;26.20
20610;DHT22;10463;52.378;9.688;2024-02-04T09:48:32;22.00;26.20
20610;DHT22;10463;52.378;9.688;2024-02-04T09:51:18;22.00;26.20
20610;DHT22;10463;52.378;9.688;2024-02-04T09:54:04;22.00;26.20
20610;DHT22;10463;52.378;9.688;2024-02-04T09:56:51;22.00;26.20
20610;DHT22;10463;52.378;9.688;2024-02-04T09:59:36;22.00;26.20
20610;DHT22;10463;52.378;9.688;2024-02-04T10:02:21;22.00;26.20
20610;DHT22;10463;52.378;9.688;2024-02-04T10:05:07;22.00;26.20
20610;DHT22;10463;52.378;9.688;2024-02-04T10:07:54;22.00;26.20
20610;DHT22;10463;52.378;9.688;2024-02-04T10:10:39;22.00;26.20
20610;DHT22;10463;52.378;9.688;2024-02-04T10:13:24;22.00;26.10
20610;DHT22;10463;52.378;9.688;2024-02-04T10:16:09;22.00;26.20
20610;DHT22;10463;52.378;9.688;2024-02-04T10:18:54;22.00;26.20
20610;DHT22;10463;52.378;9.688;2024-02-04T10:21:40;22.00;26.10
20610;DHT22;10463;52.378;9.688;2024-02-04T10:24:27;22.00;26.20
20610;DHT22;10463;52.378;9.688;2024-02-04T10:27:12;22.00;26.20
20610;DHT22;10463;52.378;9.688;2024-02-04T10:29:56;22.10;26.20
20610;DHT22;10463;52.378;9.688;2024-02-04T10:32:41;22.00;26.10
20610;DHT22;10463;52.378;9.688;2024-02-04T10:35:26;22.00;26.10
20610;DHT22;10463;52.378;9.688;2024-02-04T10:38:11;22.00;26.10
20610;DHT22;10463;52.378;9.688;2024-02-04T10:40:59;22.00;26.20
20610;DHT22;10463;52.378;9.688;2024-02-04T10:43:45;22.10;26.20
20610;DHT22;10463;52.378;9.688;2024-02-04T10:46:32;22.00;26.10
20610;DHT22;10463;52.378;9.688;2024-02-04T10:49:19;22.00;26.10
20610;DHT22;10463;52.378;9.688;2024-02-04T10:52:07;22.10;26.20
20610;DHT22;10463;52.378;9.688;2024-02-04T10:54:52;22.10;26.20
20610;DHT22;10463;52.378;9.688;2024-02-04T10:57:39;22.10;26.10
20610;DHT22;10463;52.378;9.688;2024-02-04T11:00:24;22.10;26.10
20610;DHT22;10463;52.378;9.688;2024-02-04T11:03:11;22.10;26.10
20610;DHT22;10463;52.378;9.688;2024-02-04T11:05:56;22.10;26.10
20610;DHT22;10463;52.378;9.688;2024-02-04T11:08:41;22.10;26.70
20610;DHT22;10463;52.378;9.688;2024-02-04T11:11:27;22.10;26.10
20610;DHT22;10463;52.378;9.688;2024-02-04T11:14:17;22.10;26.10
20610;DHT22;10463;52.378;9.688;2024-02-04T11:17:22;22.10;26.10
20610;DHT22;10463;52.378;9.688;2024-02-04T11:20:27;22.10;26.10
20610;DHT22;10463;52.378;9.688;2024-02-04T11:23:37;22.10;26.10
20610;DHT22;10463;52.378;9.688;2024-02-04T11:26:26;22.10;26.10
20610;DHT22;10463;52.378;9.688;2024-02-04T11:29:13;22.10;26.10
20610;DHT22;10463;52.378;9.688;2024-02-04T11:31:57;22.10;26.10
20610;DHT22;10463;52.378;9.688;2024-02-04T11:34:43;22.10;26.10
20610;DHT22;10463;52.378;9.688;2024-02-04T11:37:28;22.10;26.10
20610;DHT22;10463;52.378;9.688;2024-02-04T11:40:15;22.10;26.10
20610;DHT22;10463;52.378;9.688;2024-02-04T11:43:05;22.20;26.20
20610;DHT22;10463;52.378;9.688;2024-02-04T11:45:52;22.10;26.10
20610;DHT22;10463;52.378;9.688;2024-02-04T11:48:41;22.10;26.10
20610;DHT22;10463;52.378;9.688;2024-02-04T11:51:26;22.10;26.10
20610;DHT22;10463;52.378;9.688;2024-02-04T11:54:10;22.20;26.20
20610;DHT22;10463;52.378;9.688;2024-02-04T11:56:57;22.20;26.20
20610;DHT22;10463;52.378;9.688;2024-02-04T11:59:43;22.20;26.10
20610;DHT22;10463;52.378;9.688;2024-02-04T12:02:30;22.20;26.10
20610;DHT22;10463;52.378;9.688;2024-02-04T12:05:15;22.20;26.10
20610;DHT22;10463;52.378;9.688;2024-02-04T12:08:01;22.20;26.10
20610;DHT22;10463;52.378;9.688;2024-02-04T12:10:46;22.20;26.00
20610;DHT22;10463;52.378;9.688;2024-02-04T12:13:32;22.20;26.10
20610;DHT22;10463;52.378;9.688;2024-02-04T12:16:22;22.20;26.00
20610;DHT22;10463;52.378;9.688;2024-02-04T12:19:08;22.20;26.00
20610;DHT22;10463;52.378;9.688;2024-02-04T12:21:53;22.20;26.00
20610;DHT22;10463;52.378;9.688;2024-02-04T12:24:39;22.20;26.00
20610;DHT22;10463;52.378;9.688;2024-02-04T12:27:24;22.20;26.00
20610;DHT22;10463;52.378;9.688;2024-02-04T12:30:10;22.20;26.00
20610;DHT22;10463;52.378;9.688;2024-02-04T12:32:58;22.20;26.00
20610;DHT22;10463;52.378;9.688;2024-02-04T12:35:49;22.20;26.00
20610;DHT22;10463;52.378;9.688;2024-02-04T12:38:35;22.20;26.00
20610;DHT22;10463;52.378;9.688;2024-02-04T12:41:21;22.20;26.00
20610;DHT22;10463;52.378;9.688;2024-02-04T12:44:06;22.20;25.90
20610;DHT22;10463;52.378;9.688;2024-02-04T12:46:51;22.20;25.90
20610;DHT22;10463;52.378;9.688;2024-02-04T12:49:36;22.20;25.90
20610;DHT22;10463;52.378;9.688;2024-02-04T12:52:22;22.20;25.90
20610;DHT22;10463;52.378;9.688;2024-02-04T12:55:08;22.20;25.90
20610;DHT22;10463;52.378;9.688;2024-02-04T12:58:02;22.20;25.90
20610;DHT22;10463;52.378;9.688;2024-02-04T13:00:48;22.20;25.90
20610;DHT22;10463;52.378;9.688;2024-02-04T13:03:33;22.20;25.90
20610;DHT22;10463;52.378;9.688;2024-02-04T13:06:17;22.20;25.90
20610;DHT22;10463;52.378;9.688;2024-02-04T13:09:03;22.20;26.40
20610;DHT22;10463;52.378;9.688;2024-02-04T13:11:50;22.20;25.90
20610;DHT22;10463;52.378;9.688;2024-02-04T13:14:35;22.20;25.90
20610;DHT22;10463;52.378;9.688;2024-02-04T13:17:21;22.20;25.90
20610;DHT22;10463;52.378;9.688;2024-02-04T13:20:07;22.20;25.90
20610;DHT22;10463;52.378;9.688;2024-02-04T13:22:53;22.20;25.90
20610;DHT22;10463;52.378;9.688;2024-02-04T13:25:39;22.20;25.90
20610;DHT22;10463;52.378;9.688;2024-02-04T13:28:24;22.20;25.90
20610;DHT22;10463;52.378;9.688;2024-02-04T13:31:09;22.20;25.90
20610;DHT22;10463;52.378;9.688;2024-02-04T13:33:53;22.20;25.90
20610;DHT22;10463;52.378;9.688;2024-02-04T13:36:38;22.20;25.90
20610;DHT22;10463;52.378;9.688;2024-02-04T13:39:22;22.20;25.90
20610;DHT22;10463;52.378;9.688;2024-02-04T13:42:08;22.20;25.80
20610;DHT22;10463;52.378;9.688;2024-02-04T13:44:53;22.20;25.90
20610;DHT22;10463;52.378;9.688;2024-02-04T13:47:37;22.20;25.80
20610;DHT22;10463;52.378;9.688;2024-02-04T13:50:22;22.20;25.90
20610;DHT22;10463;52.378;9.688;2024-02-04T13:53:07;22.20;25.90
20610;DHT22;10463;52.378;9.688;2024-02-04T13:55:52;22.20;25.90
20610;DHT22;10463;52.378;9.688;2024-02-04T13:58:38;22.20;25.90
20610;DHT22;10463;52.378;9.688;2024-02-04T14:01:23;22.30;25.90
20610;DHT22;10463;52.378;9.688;2024-02-04T14:04:07;22.20;25.90
20610;DHT22;10463;52.378;9.688;2024-02-04T14:06:52;22.20;25.90
20610;DHT22;10463;52.378;9.688;2024-02-04T14:09:36;22.20;25.80
20610;DHT22;10463;52.378;9.688;2024-02-04T14:12:21;22.30;25.90
20610;DHT22;10463;52.378;9.688;2024-02-04T14:15:08;22.30;25.90
20610;DHT22;10463;52.378;9.688;2024-02-04T14:17:53;22.20;25.90
20610;DHT22;10463;52.378;9.688;2024-02-04T14:20:38;22.30;25.90
20610;DHT22;10463;52.378;9.688;2024-02-04T14:23:23;22.30;25.90
20610;DHT22;10463;52.378;9.688;2024-02-04T14:26:07;22.20;25.80
20610;DHT22;10463;52.378;9.688;2024-02-04T14:28:52;22.30;25.90
20610;DHT22;10463;52.378;9.688;2024-02-04T14:31:38;22.30;25.90
20610;DHT22;10463;52.378;9.688;2024-02-04T14:34:22;22.30;25.90
20610;DHT22;10463;52.378;9.688;2024-02-04T14:37:07;22.30;25.90
20610;DHT22;10463;52.378;9.688;2024-02-04T14:39:52;22.30;25.90
20610;DHT22;10463;52.378;9.688;2024-02-04T14:42:36;22.30;25.90
20610;DHT22;10463;52.378;9.688;2024-02-04T14:45:21;22.30;25.90
20610;DHT22;10463;52.378;9.688;2024-02-04T14:48:08;22.20;25.90
20610;DHT22;10463;52.378;9.688;2024-02-04T14:50:52;22.30;25.90
20610;DHT22;10463;52.378;9.688;2024-02-04T14:53:38;22.30;25.90
20610;DHT22;10463;52.378;9.688;2024-02-04T14:56:23;22.30;25.90
20610;DHT22;10463;52.378;9.688;2024-02-04T14:59:10;22.20;25.90
20610;DHT22;10463;52.378;9.688;2024-02-04T15:01:55;22.30;25.90
20610;DHT22;10463;52.378;9.688;2024-02-04T15:04:41;22.30;25.90
20610;DHT22;10463;52.378;9.688;2024-02-04T15:07:25;22.30;26.00
20610;DHT22;10463;52.378;9.688;2024-02-04T15:10:10;22.30;25.90
20610;DHT22;10463;52.378;9.688;2024-02-04T15:12:55;22.30;25.90
20610;DHT22;10463;52.378;9.688;2024-02-04T15:15:42;22.30;25.90
20610;DHT22;10463;52.378;9.688;2024-02-04T15:18:28;22.30;25.90
20610;DHT22;10463;52.378;9.688;2024-02-04T15:21:15;22.20;25.90
20610;DHT22;10463;52.378;9.688;2024-02-04T15:24:00;22.30;26.00
20610;DHT22;10463;52.378;9.688;2024-02-04T15:26:50;22.30;26.00
20610;DHT22;10463;52.378;9.688;2024-02-04T15:29:37;22.20;25.90
20610;DHT22;10463;52.378;9.688;2024-02-04T15:32:23;22.20;25.90
20610;DHT22;10463;52.378;9.688;2024-02-04T15:35:09;22.30;25.90
20610;DHT22;10463;52.378;9.688;2024-02-04T15:37:57;22.30;26.00
20610;DHT22;10463;52.378;9.688;2024-02-04T15:40:42;22.30;26.00
20610;DHT22;10463;52.378;9.688;2024-02-04T15:43:29;22.30;26.00
20610;DHT22;10463;52.378;9.688;2024-02-04T15:46:14;22.30;26.00
20610;DHT22;10463;52.378;9.688;2024-02-04T15:49:02;22.30;26.00
20610;DHT22;10463;52.378;9.688;2024-02-04T15:51:49;22.30;25.90
20610;DHT22;10463;52.378;9.688;2024-02-04T15:54:36;22.30;25.90
20610;DHT22;10463;52.378;9.688;2024-02-04T15:57:23;22.20;25.90
20610;DHT22;10463;52.378;9.688;2024-02-04T16:00:13;22.30;25.90
20610;DHT22;10463;52.378;9.688;2024-02-04T16:03:03;22.30;25.90
20610;DHT22;10463;52.378;9.688;2024-02-04T16:05:48;22.30;25.90
20610;DHT22;10463;52.378;9.688;2024-02-04T16:08:34;22.30;26.40
20610;DHT22;10463;52.378;9.688;2024-02-04T16:11:24;22.30;25.90
20610;DHT22;10463;52.378;9.688;2024-02-04T16:14:11;22.30;25.90
20610;DHT22;10463;52.378;9.688;2024-02-04T16:17:02;22.30;25.90
20610;DHT22;10463;52.378;9.688;2024-02-04T16:19:50;22.30;25.90
20610;DHT22;10463;52.378;9.688;2024-02-04T16:22:35;22.30;25.90
20610;DHT22;10463;52.378;9.688;2024-02-04T16:25:20;22.30;25.90
20610;DHT22;10463;52.378;9.688;2024-02-04T16:28:06;22.30;26.50
20610;DHT22;10463;52.378;9.688;2024-02-04T16:30:51;22.30;25.90
20610;DHT22;10463;52.378;9.688;2024-02-04T16:33:35;22.30;26.00
20610;DHT22;10463;52.378;9.688;2024-02-04T16:36:21;22.30;25.90
20610;DHT22;10463;52.378;9.688;2024-02-04T16:39:05;22.30;25.90
20610;DHT22;10463;52.378;9.688;2024-02-04T16:41:50;22.30;25.90
20610;DHT22;10463;52.378;9.688;2024-02-04T16:44:36;22.30;26.00
20610;DHT22;10463;52.378;9.688;2024-02-04T16:47:20;22.30;25.90
20610;DHT22;10463;52.378;9.688;2024-02-04T16:50:06;22.30;25.90
20610;DHT22;10463;52.378;9.688;2024-02-04T16:52:52;22.30;26.00
20610;DHT22;10463;52.378;9.688;2024-02-04T16:55:36;22.30;25.90
20610;DHT22;10463;52.378;9.688;2024-02-04T16:58:21;22.30;26.00
20610;DHT22;10463;52.378;9.688;2024-02-04T17:01:06;22.30;25.90
20610;DHT22;10463;52.378;9.688;2024-02-04T17:03:52;22.30;25.90
20610;DHT22;10463;52.378;9.688;2024-02-04T17:06:37;22.30;25.90
20610;DHT22;10463;52.378;9.688;2024-02-04T17:09:24;22.30;25.90
20610;DHT22;10463;52.378;9.688;2024-02-04T17:12:11;22.30;26.00
20610;DHT22;10463;52.378;9.688;2024-02-04T17:14:56;22.30;25.90
20610;DHT22;10463;52.378;9.688;2024-02-04T17:17:46;22.30;25.90
20610;DHT22;10463;52.378;9.688;2024-02-04T17:20:50;22.30;25.90
20610;DHT22;10463;52.378;9.688;2024-02-04T17:23:38;22.30;25.90
20610;DHT22;10463;52.378;9.688;2024-02-04T17:26:27;22.30;25.90